McLane, Pennsylvania
Current Conditions -  °F | °C
As of 10:51 AM on Sunday 23 Nov 2014 (Local Time) from KERI Reporting Station
Overcast Overcast  
Wind Chill: 40°   Ceiling: 4000
Heat Index: 46°   Visibility: 10mi
Dew Point: 41°   Wind: 13mph
Humidity: 83%   Direction: 170°S
Pressure: 30.04"   Gusts: NA
Location:  41.9793°N, 80.1405°W
Report Text: KERI 231551Z 17011KT 10SM FEW028 BKN040 OVC060 08/05 A3004 RMK AO2 RAE00B19E28 SLP176 P0000 T00780050
Loading
Personal Weather Stations






























Interactive Weather Map New forecast layout! Learn more

10-Day Weather Forecast

Advertisements
Track Severe Weather on mobile